Time;durP1;ratioP1;P1;durP2;ratioP2;P2;SDS_P1;SDS_P2;PMS_P1;PMS_P2;Temp;Humidity;BMP_temperature;BMP_pressure;BME280_temperature;BME280_humidity;BME280_pressure;Samples;Min_cycle;Max_cycle;Signal;HPM_P1;HPM_P2
2021/10/21 00:00:20;;;;;;;3.17;1.40;;;;;;;22.22;50.54;98853.84;5004932;28;20029;-62
2021/10/21 00:02:46;;;;;;;9.25;1.80;;;;;;;22.12;50.77;98834.66;5023351;28;20041;-62
2021/10/21 00:05:11;;;;;;;2.63;1.60;;;;;;;22.05;50.70;98825.84;5024364;28;20726;-61
2021/10/21 00:07:36;;;;;;;3.97;1.60;;;;;;;21.97;50.91;98815.38;5021593;28;20029;-62
2021/10/21 00:10:03;;;;;;;3.33;1.63;;;;;;;21.90;50.64;98776.53;5005190;28;20109;-62
2021/10/21 00:12:30;;;;;;;6.03;1.70;;;;;;;21.84;51.60;98804.78;5022546;28;20090;-62
2021/10/21 00:14:55;;;;;;;5.25;1.40;;;;;;;21.77;50.99;98775.00;5023781;28;20480;-62
2021/10/21 00:17:20;;;;;;;4.55;2.38;;;;;;;21.72;51.06;98785.78;5005042;28;20030;-61
2021/10/21 00:19:46;;;;;;;2.08;1.20;;;;;;;21.71;52.01;98777.88;5022736;28;20040;-62
2021/10/21 00:22:11;;;;;;;2.70;1.40;;;;;;;21.71;51.94;98797.78;5023987;28;20040;-62
2021/10/21 00:24:37;;;;;;;2.53;1.02;;;;;;;21.66;51.61;98786.00;5021720;28;20522;-61
2021/10/21 00:27:02;;;;;;;2.00;0.75;;;;;;;21.60;51.44;98793.28;5023039;28;20115;-62
2021/10/21 00:29:27;;;;;;;3.45;0.80;;;;;;;21.57;51.51;98798.38;5005812;28;20381;-62
2021/10/21 00:31:53;;;;;;;2.00;0.50;;;;;;;21.51;51.29;98796.66;5021827;28;20030;-62
2021/10/21 00:34:18;;;;;;;0.50;0.50;;;;;;;21.53;50.92;98787.16;5023700;28;20029;-62
2021/10/21 00:36:44;;;;;;;1.35;0.50;;;;;;;21.53;49.97;98789.03;5021242;28;20028;-62
2021/10/21 00:39:10;;;;;;;2.75;0.30;;;;;;;21.54;50.25;98782.53;5006278;28;20537;-61
2021/10/21 00:41:36;;;;;;;4.75;0.50;;;;;;;21.59;49.94;98807.13;5004137;28;20105;-60
2021/10/21 00:44:11;;;;;;;4.65;0.90;;;;;;;21.61;50.15;98805.81;5023354;28;20460;-60
2021/10/21 00:46:37;;;;;;;2.20;1.20;;;;;;;21.64;49.51;98777.22;5006755;28;20084;-60
2021/10/21 00:49:03;;;;;;;1.45;0.80;;;;;;;21.67;49.26;98783.00;5004879;28;20558;-61
2021/10/21 00:51:30;;;;;;;2.97;0.45;;;;;;;21.71;48.23;98777.88;4988640;28;20041;-60
2021/10/21 00:53:55;;;;;;;2.75;0.38;;;;;;;21.75;48.30;98789.91;5006630;28;20021;-60
2021/10/21 00:56:21;;;;;;;3.38;0.88;;;;;;;21.76;48.16;98781.50;5023189;28;20494;-60
2021/10/21 00:58:50;;;;;;;1.13;0.38;;;;;;;21.78;47.60;98779.34;5022615;28;20029;-60
2021/10/21 01:01:18;;;;;;;0.65;0.30;;;;;;;21.79;47.85;98780.19;5004344;28;20033;-61
2021/10/21 01:03:43;;;;;;;0.73;0.25;;;;;;;21.79;47.20;98794.63;5004809;28;20033;-60
2021/10/21 01:06:09;;;;;;;0.50;0.32;;;;;;;21.79;47.14;98772.00;5023008;28;20042;-61
2021/10/21 01:08:36;;;;;;;4.38;0.40;;;;;;;21.77;47.17;98782.34;5003734;28;20026;-60
2021/10/21 01:11:02;;;;;;;0.68;0.30;;;;;;;21.80;46.72;98763.56;4989228;28;20029;-61
2021/10/21 01:13:27;;;;;;;2.22;0.43;;;;;;;21.83;46.15;98759.53;5022876;28;20026;-61
2021/10/21 01:16:07;;;;;;;2.30;0.45;;;;;;;21.82;46.53;98757.88;5021233;28;20030;-60
2021/10/21 01:18:33;;;;;;;4.10;0.80;;;;;;;21.83;45.82;98751.34;4987655;28;20076;-61
2021/10/21 01:20:59;;;;;;;5.00;0.40;;;;;;;21.81;45.63;98748.84;5024178;28;20022;-61
2021/10/21 01:23:25;;;;;;;2.38;0.25;;;;;;;21.82;45.56;98752.41;5022522;28;20022;-60
2021/10/21 01:25:50;;;;;;;4.20;1.05;;;;;;;21.82;46.00;98741.50;5008240;28;20576;-60
2021/10/21 01:28:15;;;;;;;2.65;0.20;;;;;;;21.81;45.31;98762.50;5025511;28;20026;-60
2021/10/21 01:30:41;;;;;;;3.28;0.50;;;;;;;21.77;46.06;98772.25;5026750;28;20041;-61
2021/10/21 01:33:06;;;;;;;5.50;0.73;;;;;;;21.61;46.03;98777.75;5008941;28;20033;-62
2021/10/21 01:35:32;;;;;;;2.45;0.35;;;;;;;21.40;46.39;98782.88;5007535;28;20069;-60
2021/10/21 01:37:57;;;;;;;2.45;0.40;;;;;;;21.16;47.50;98769.69;5026991;28;20033;-60
2021/10/21 01:40:23;;;;;;;2.45;0.52;;;;;;;20.96;47.18;98764.72;5025879;28;20026;-60
2021/10/21 01:42:49;;;;;;;3.30;0.50;;;;;;;20.82;46.80;98774.25;5028515;28;20065;-60
2021/10/21 01:45:23;;;;;;;2.63;0.65;;;;;;;20.66;47.36;98769.63;5025938;28;20445;-60
2021/10/21 01:47:49;;;;;;;1.48;0.35;;;;;;;20.57;47.31;98773.81;4992416;28;20033;-60
2021/10/21 01:50:14;;;;;;;1.90;0.43;;;;;;;20.50;47.80;98751.34;5025039;28;20025;-59
2021/10/21 01:52:40;;;;;;;1.23;0.40;;;;;;;20.43;47.15;98756.13;5025391;28;20398;-59
2021/10/21 01:55:07;;;;;;;1.83;0.40;;;;;;;20.44;47.32;98755.03;5025621;28;20033;-60
2021/10/21 01:57:33;;;;;;;2.10;0.45;;;;;;;20.40;47.17;98751.19;5007567;28;20085;-60
2021/10/21 01:59:58;;;;;;;4.03;0.60;;;;;;;20.40;47.42;98753.91;5024743;28;20112;-59
2021/10/21 02:02:24;;;;;;;2.83;0.57;;;;;;;20.37;46.86;98749.78;5026071;28;20041;-59
2021/10/21 02:04:49;;;;;;;3.33;0.40;;;;;;;20.36;46.81;98747.28;5025868;28;20052;-59
2021/10/21 02:07:14;;;;;;;2.33;0.20;;;;;;;20.31;47.15;98746.13;5027235;28;20022;-59
2021/10/21 02:09:40;;;;;;;1.98;0.30;;;;;;;20.32;46.56;98742.31;5007525;28;20112;-59
2021/10/21 02:12:05;;;;;;;8.48;0.82;;;;;;;20.32;47.02;98725.19;5026326;28;20030;-59
2021/10/21 02:14:31;;;;;;;2.45;0.30;;;;;;;20.31;46.72;98721.66;5010935;28;20037;-59
2021/10/21 02:16:57;;;;;;;5.97;0.65;;;;;;;20.32;46.69;98725.19;4974957;28;20474;-60
2021/10/21 02:19:22;;;;;;;0.65;0.22;;;;;;;20.31;46.69;98727.09;5025921;28;20363;-59
2021/10/21 02:21:48;;;;;;;5.72;0.80;;;;;;;20.30;46.77;98722.72;5027877;28;20085;-59
2021/10/21 02:24:13;;;;;;;8.93;0.50;;;;;;;20.27;46.61;98701.44;5024966;28;20028;-59
2021/10/21 02:26:39;;;;;;;2.70;0.40;;;;;;;20.32;46.81;98714.31;5026415;28;20069;-59
2021/10/21 02:29:04;;;;;;;9.30;0.68;;;;;;;20.31;46.64;98710.78;5027159;28;20030;-59
2021/10/21 02:31:29;;;;;;;1.13;0.50;;;;;;;20.31;46.67;98708.06;5029404;28;20095;-59
2021/10/21 02:33:55;;;;;;;4.68;0.98;;;;;;;20.28;46.60;98697.66;5024766;28;20032;-60
2021/10/21 02:36:20;;;;;;;3.53;0.85;;;;;;;20.28;46.67;98707.72;5024496;28;20037;-59
2021/10/21 02:38:45;;;;;;;6.65;0.68;;;;;;;20.26;46.78;98710.69;5024625;28;20111;-60
2021/10/21 02:41:11;;;;;;;1.27;0.60;;;;;;;20.22;46.75;98709.47;5025027;28;20036;-60
2021/10/21 02:43:37;;;;;;;1.52;0.95;;;;;;;20.19;46.93;98687.38;5024790;28;20095;-60
2021/10/21 02:46:03;;;;;;;3.50;0.50;;;;;;;20.15;46.77;98691.66;5026049;28;20552;-59
2021/10/21 02:48:29;;;;;;;4.07;0.50;;;;;;;20.14;47.05;98688.13;5026852;28;20017;-60
2021/10/21 02:50:54;;;;;;;6.65;1.17;;;;;;;20.10;47.36;98686.94;4993600;28;20080;-60
2021/10/21 02:53:20;;;;;;;4.30;0.52;;;;;;;20.06;46.92;98682.25;5026555;28;20029;-60
2021/10/21 02:55:45;;;;;;;1.92;0.55;;;;;;;20.03;47.20;98689.00;5025671;28;20026;-60
2021/10/21 02:58:10;;;;;;;5.78;0.88;;;;;;;20.02;47.51;98673.75;5024583;28;20565;-60
2021/10/21 03:00:36;;;;;;;2.25;0.50;;;;;;;20.02;47.48;98672.91;5006755;28;20035;-59
2021/10/21 03:03:01;;;;;;;2.17;0.38;;;;;;;20.05;47.40;98680.59;5027308;28;20042;-60
2021/10/21 03:05:27;;;;;;;2.47;0.40;;;;;;;20.01;47.43;98668.56;5026839;28;20054;-60
2021/10/21 03:07:52;;;;;;;3.55;0.80;;;;;;;20.01;46.77;98663.13;5024966;28;20029;-60
2021/10/21 03:10:18;;;;;;;2.92;0.40;;;;;;;19.99;47.39;98638.88;5008805;28;20018;-60
2021/10/21 03:12:43;;;;;;;2.08;0.63;;;;;;;20.02;47.40;98640.28;5007556;28;20029;-60
2021/10/21 03:15:10;;;;;;;4.93;0.52;;;;;;;20.00;47.32;98647.88;5024983;28;20025;-60
2021/10/21 03:17:41;;;;;;;4.25;0.45;;;;;;;19.98;47.40;98648.13;5026141;28;20021;-60
2021/10/21 03:20:08;;;;;;;5.40;0.60;;;;;;;19.98;47.34;98626.38;5023648;28;20017;-60
2021/10/21 03:22:34;;;;;;;5.18;1.17;;;;;;;19.95;47.29;98626.88;5023344;28;20374;-60
2021/10/21 03:24:59;;;;;;;4.20;0.38;;;;;;;19.98;47.61;98614.69;5008980;28;20045;-60
2021/10/21 03:27:24;;;;;;;2.47;0.88;;;;;;;19.96;46.68;98619.56;4991096;28;20361;-59
2021/10/21 03:29:51;;;;;;;2.50;0.52;;;;;;;20.01;46.74;98620.47;5025612;28;20029;-59
2021/10/21 03:32:16;;;;;;;1.35;0.45;;;;;;;20.00;46.74;98626.97;5024815;28;20121;-60
2021/10/21 03:34:41;;;;;;;3.08;1.02;;;;;;;20.02;47.05;98632.97;5008076;28;20104;-59
2021/10/21 03:37:07;;;;;;;5.05;0.40;;;;;;;20.04;47.11;98636.28;5025120;28;20079;-60
2021/10/21 03:39:33;;;;;;;9.88;0.40;;;;;;;20.05;46.92;98654.22;5023646;28;20023;-59
2021/10/21 03:41:58;;;;;;;4.88;0.85;;;;;;;20.04;47.14;98658.03;5026637;28;20030;-60
2021/10/21 03:44:23;;;;;;;4.68;1.38;;;;;;;19.99;46.98;98671.50;5024854;28;20104;-60
2021/10/21 03:46:49;;;;;;;2.97;1.05;;;;;;;19.93;47.06;98656.19;5024770;28;20025;-59
2021/10/21 03:49:14;;;;;;;2.53;0.45;;;;;;;19.84;47.75;98652.22;5023323;28;20025;-59
2021/10/21 03:51:40;;;;;;;2.97;0.45;;;;;;;19.69;47.78;98638.31;5022804;28;20030;-59
2021/10/21 03:54:05;;;;;;;8.77;0.82;;;;;;;19.69;47.92;98649.19;5024238;28;20026;-59
2021/10/21 03:56:30;;;;;;;5.05;0.55;;;;;;;19.60;47.68;98628.88;5023417;28;20029;-60
2021/10/21 03:58:56;;;;;;;2.17;0.70;;;;;;;19.50;47.38;98618.66;5023385;28;20402;-59
2021/10/21 04:01:21;;;;;;;5.13;0.75;;;;;;;19.41;47.70;98632.84;5006509;28;20026;-59
2021/10/21 04:03:47;;;;;;;2.13;0.82;;;;;;;19.37;48.20;98628.94;5003987;28;20033;-59
2021/10/21 04:06:12;;;;;;;2.30;1.05;;;;;;;19.36;48.17;98643.56;5015198;28;20572;-59
2021/10/21 04:08:38;;;;;;;1.08;0.25;;;;;;;19.25;48.36;98641.69;5015618;28;20026;-59
2021/10/21 04:11:03;;;;;;;2.58;0.47;;;;;;;19.16;49.39;98628.50;5015442;28;20080;-59
2021/10/21 04:13:28;;;;;;;1.83;0.55;;;;;;;19.12;49.17;98640.06;5015248;28;20088;-59
2021/10/21 04:15:54;;;;;;;4.47;0.50;;;;;;;19.08;48.88;98642.44;5015390;28;20022;-59
2021/10/21 04:18:19;;;;;;;0.75;0.45;;;;;;;19.06;49.29;98654.59;5015508;28;20030;-59
2021/10/21 04:20:45;;;;;;;5.18;0.20;;;;;;;19.01;48.88;98655.28;5015397;28;20069;-59
2021/10/21 04:23:11;;;;;;;2.00;1.05;;;;;;;19.04;49.46;98649.38;4997998;28;20030;-59
2021/10/21 04:25:36;;;;;;;1.75;0.47;;;;;;;19.03;49.01;98666.75;4997815;28;20038;-59
2021/10/21 04:28:02;;;;;;;0.90;0.20;;;;;;;18.96;48.90;98660.59;5015462;28;20072;-59
2021/10/21 04:30:27;;;;;;;2.63;0.28;;;;;;;19.00;49.06;98678.06;4997480;28;20453;-59
2021/10/21 04:32:52;;;;;;;0.60;0.10;;;;;;;19.00;49.28;98655.53;5015163;28;20029;-60
2021/10/21 04:35:18;;;;;;;3.42;0.38;;;;;;;18.98;49.27;98680.16;5015129;28;20036;-59
2021/10/21 04:37:43;;;;;;;2.25;0.20;;;;;;;18.93;49.26;98682.78;5015215;28;20044;-59
2021/10/21 04:40:09;;;;;;;1.33;0.22;;;;;;;18.87;49.44;98693.75;5015006;28;20038;-59
2021/10/21 04:42:36;;;;;;;0.30;0.10;;;;;;;18.82;49.63;98685.47;4997219;28;20057;-59
2021/10/21 04:45:02;;;;;;;3.53;0.28;;;;;;;18.78;49.73;98695.16;5015059;28;20044;-59
2021/10/21 04:47:27;;;;;;;0.28;0.10;;;;;;;18.75;50.22;98707.31;5014821;28;20053;-59
2021/10/21 04:49:53;;;;;;;1.38;0.20;;;;;;;18.71;49.91;98706.09;5014475;28;20034;-60
2021/10/21 04:52:18;;;;;;;1.23;0.38;;;;;;;18.66;50.52;98711.41;5014607;28;20034;-59
2021/10/21 04:54:43;;;;;;;0.45;0.13;;;;;;;18.63;50.46;98714.59;5014436;28;20025;-60
2021/10/21 04:57:09;;;;;;;1.13;0.20;;;;;;;18.60;49.69;98740.28;5014571;28;20556;-59
2021/10/21 04:59:34;;;;;;;0.43;0.10;;;;;;;18.56;50.18;98758.06;4996062;28;20026;-59
2021/10/21 05:02:00;;;;;;;0.93;0.10;;;;;;;18.58;49.75;98771.41;5014137;28;20043;-59
2021/10/21 05:04:26;;;;;;;4.72;0.50;;;;;;;18.54;49.81;98753.94;5014921;28;20124;-59
2021/10/21 05:06:51;;;;;;;0.20;0.20;;;;;;;18.50;50.77;98771.75;5014364;28;20034;-59
2021/10/21 05:09:16;;;;;;;0.75;0.20;;;;;;;18.41;50.31;98783.91;5014451;28;20517;-59
2021/10/21 05:11:42;;;;;;;0.65;0.13;;;;;;;18.31;50.70;98783.66;5014814;28;20030;-59
2021/10/21 05:14:07;;;;;;;0.98;0.28;;;;;;;18.22;50.46;98831.09;5014501;28;20041;-59
2021/10/21 05:16:33;;;;;;;0.40;0.10;;;;;;;18.15;51.71;98811.34;5013998;28;20057;-59
2021/10/21 05:18:58;;;;;;;1.80;0.35;;;;;;;18.07;50.51;98855.03;5014369;28;20104;-59
2021/10/21 05:21:24;;;;;;;0.80;0.20;;;;;;;17.98;50.89;98841.78;5013919;28;20069;-59
2021/10/21 05:23:49;;;;;;;0.40;0.22;;;;;;;17.91;51.18;98895.22;4996642;28;20030;-59
2021/10/21 05:26:14;;;;;;;3.65;0.30;;;;;;;17.80;51.71;98912.19;5014243;28;20041;-59
2021/10/21 05:28:40;;;;;;;0.30;0.30;;;;;;;17.73;50.80;98952.03;5014392;28;20181;-59
2021/10/21 05:31:05;;;;;;;1.95;0.30;;;;;;;17.63;50.48;98961.72;5013687;28;20057;-59
2021/10/21 05:33:35;;;;;;;3.65;1.08;;;;;;;17.56;51.35;98999.66;5013770;28;20108;-59
2021/10/21 05:36:04;;;;;;;1.83;0.45;;;;;;;17.51;51.59;99023.81;5013732;28;20076;-59
2021/10/21 05:38:30;;;;;;;2.00;0.65;;;;;;;17.45;51.56;99014.69;5013823;28;20088;-59
2021/10/21 05:40:55;;;;;;;3.50;0.63;;;;;;;17.39;51.46;99067.00;5013843;28;20025;-59
2021/10/21 05:43:22;;;;;;;1.83;0.45;;;;;;;17.33;52.29;99096.81;5013675;28;20497;-59
2021/10/21 05:45:47;;;;;;;2.47;0.30;;;;;;;17.28;50.57;99104.75;4996781;28;20044;-59
2021/10/21 05:48:15;;;;;;;4.13;0.47;;;;;;;17.22;51.41;99121.84;5013758;28;20454;-59
2021/10/21 05:50:40;;;;;;;4.03;0.60;;;;;;;17.20;50.91;99150.97;4996319;28;20030;-59
2021/10/21 05:53:05;;;;;;;2.08;0.50;;;;;;;17.16;51.53;99166.81;4996496;28;20026;-60
2021/10/21 05:55:31;;;;;;;3.92;0.80;;;;;;;17.11;51.73;99196.41;5013952;28;20080;-59
2021/10/21 05:57:56;;;;;;;4.15;0.70;;;;;;;17.12;52.10;99216.97;5013751;28;20092;-60
2021/10/21 06:00:21;;;;;;;3.42;0.57;;;;;;;17.12;52.12;99235.09;5013809;28;20500;-59
2021/10/21 06:02:47;;;;;;;5.18;1.38;;;;;;;17.10;51.52;99264.22;5013461;28;20034;-59
2021/10/21 06:05:13;;;;;;;4.43;0.73;;;;;;;17.09;52.20;99266.09;5013369;28;20057;-59
2021/10/21 06:07:38;;;;;;;5.35;1.38;;;;;;;17.09;51.99;99300.44;5013808;28;20022;-59
2021/10/21 06:10:04;;;;;;;10.85;1.27;;;;;;;17.10;51.66;99332.72;5013679;28;20088;-60
2021/10/21 06:12:29;;;;;;;6.97;0.80;;;;;;;17.05;52.31;99337.91;5016899;28;20137;-60
2021/10/21 06:14:55;;;;;;;5.97;0.73;;;;;;;17.07;52.90;99378.28;5017558;28;20522;-59
2021/10/21 06:17:22;;;;;;;9.35;2.15;;;;;;;17.03;51.11;99377.03;5017032;28;20033;-59
2021/10/21 06:19:48;;;;;;;7.95;3.17;;;;;;;17.03;51.76;99415.72;5017420;28;20030;-59
2021/10/21 06:22:18;;;;;;;5.63;0.80;;;;;;;17.02;52.36;99435.72;5017152;28;20030;-59
2021/10/21 06:24:43;;;;;;;7.50;0.90;;;;;;;17.04;52.68;99443.63;5017251;28;20022;-59
2021/10/21 06:27:09;;;;;;;5.28;0.75;;;;;;;17.03;51.75;99475.25;4999542;28;20026;-59
2021/10/21 06:29:34;;;;;;;4.35;0.68;;;;;;;16.99;51.19;99511.88;5016998;28;20026;-59
2021/10/21 06:32:00;;;;;;;4.22;1.25;;;;;;;16.97;52.41;99519.38;5017301;28;20040;-59
2021/10/21 06:34:26;;;;;;;8.00;1.02;;;;;;;16.96;51.78;99543.91;5017604;28;20048;-60
2021/10/21 06:36:52;;;;;;;5.45;0.95;;;;;;;16.96;51.73;99550.16;5017495;28;20478;-60
2021/10/21 06:39:17;;;;;;;10.98;1.08;;;;;;;16.95;52.02;99543.06;5017592;28;20033;-59
2021/10/21 06:41:42;;;;;;;2.33;0.65;;;;;;;16.92;52.24;99564.31;5017070;28;20466;-59
2021/10/21 06:44:08;;;;;;;3.97;1.15;;;;;;;16.91;51.66;99576.16;5016763;28;20026;-59
2021/10/21 06:46:34;;;;;;;2.88;1.15;;;;;;;16.88;50.88;99594.44;5016695;28;20037;-59
2021/10/21 06:48:59;;;;;;;6.25;0.60;;;;;;;16.91;52.15;99614.00;5017137;28;20493;-59
2021/10/21 06:51:25;;;;;;;7.63;0.57;;;;;;;16.95;51.72;99635.03;5017056;28;20534;-59
2021/10/21 06:53:51;;;;;;;3.83;1.13;;;;;;;16.99;51.42;99654.44;5016938;28;20498;-59
2021/10/21 06:56:16;;;;;;;1.70;0.30;;;;;;;17.00;51.85;99650.69;5016761;28;20030;-60
2021/10/21 06:58:42;;;;;;;5.13;0.57;;;;;;;17.05;50.48;99683.41;5016591;28;20425;-59
2021/10/21 07:01:07;;;;;;;3.20;1.13;;;;;;;17.06;51.00;99695.88;5016360;28;20562;-59
2021/10/21 07:03:32;;;;;;;5.72;0.93;;;;;;;17.04;50.34;99697.94;4998901;28;20038;-59
2021/10/21 07:05:58;;;;;;;3.55;0.60;;;;;;;17.06;51.99;99720.22;5016037;28;20077;-59
2021/10/21 07:08:25;;;;;;;10.82;1.15;;;;;;;17.12;50.39;99735.69;5016146;28;20475;-59
2021/10/21 07:10:51;;;;;;;9.15;1.10;;;;;;;17.17;50.24;99736.75;5016355;28;20049;-59
2021/10/21 07:13:16;;;;;;;6.38;0.68;;;;;;;17.22;51.21;99755.13;5016147;28;20482;-59
2021/10/21 07:15:42;;;;;;;4.60;0.80;;;;;;;17.29;50.90;99753.28;4998545;28;20037;-59
2021/10/21 07:18:07;;;;;;;5.38;0.70;;;;;;;17.34;49.98;99767.06;5016132;28;20030;-59
2021/10/21 07:20:32;;;;;;;2.92;1.55;;;;;;;17.46;50.34;99779.00;4998486;28;20025;-59
2021/10/21 07:22:58;;;;;;;4.10;1.10;;;;;;;17.56;49.82;99784.09;5015514;28;20057;-59
2021/10/21 07:25:27;;;;;;;7.50;1.10;;;;;;;17.63;50.18;99790.38;4998572;28;20103;-59
2021/10/21 07:27:52;;;;;;;6.20;1.20;;;;;;;17.70;50.02;99813.75;5015914;28;20097;-60
2021/10/21 07:30:18;;;;;;;6.25;1.05;;;;;;;17.79;49.26;99811.72;4998233;28;20061;-60
2021/10/21 07:32:43;;;;;;;5.75;1.30;;;;;;;17.88;50.81;99824.91;5016085;28;20080;-59
2021/10/21 07:35:09;;;;;;;11.45;1.27;;;;;;;17.97;49.05;99853.53;5015710;28;20030;-60
2021/10/21 07:37:35;;;;;;;8.35;0.93;;;;;;;18.07;48.96;99863.13;5015643;28;20038;-60
2021/10/21 07:40:01;;;;;;;4.53;0.75;;;;;;;18.11;49.27;99861.72;5015638;28;20149;-60
2021/10/21 07:42:27;;;;;;;5.72;0.98;;;;;;;18.18;48.83;99865.28;5015845;28;20041;-59
2021/10/21 07:44:52;;;;;;;3.05;1.02;;;;;;;18.30;49.92;99883.47;5015561;28;20394;-59
2021/10/21 07:47:18;;;;;;;2.17;1.00;;;;;;;18.40;49.70;99907.50;4982047;28;20041;-60
2021/10/21 07:49:43;;;;;;;4.97;1.15;;;;;;;18.66;48.87;99904.94;4998301;28;20041;-60
2021/10/21 07:52:09;;;;;;;5.35;1.35;;;;;;;18.79;48.79;99923.13;4998123;28;20052;-59
2021/10/21 07:54:34;;;;;;;8.32;1.60;;;;;;;18.80;49.03;99925.63;4998215;28;20483;-58
2021/10/21 07:57:01;;;;;;;3.85;1.02;;;;;;;18.83;48.99;99941.50;5015604;28;20026;-59
2021/10/21 07:59:27;;;;;;;8.60;1.42;;;;;;;18.84;48.76;99948.63;4997963;28;20029;-59
2021/10/21 08:01:57;;;;;;;2.72;0.95;;;;;;;18.91;49.29;99956.75;5015810;28;20032;-58
2021/10/21 08:04:23;;;;;;;6.47;1.10;;;;;;;18.91;49.33;99960.31;5015793;28;20058;-59
2021/10/21 08:06:49;;;;;;;8.20;1.50;;;;;;;18.89;49.48;99954.28;5015346;28;20084;-59
2021/10/21 08:09:15;;;;;;;6.85;1.17;;;;;;;18.83;49.04;99952.38;5015516;28;20034;-58
2021/10/21 08:11:40;;;;;;;8.52;1.52;;;;;;;18.96;48.75;99963.25;5015498;28;20418;-60
2021/10/21 08:14:10;;;;;;;8.63;2.03;;;;;;;19.03;49.05;99980.41;5015746;28;20400;-59
2021/10/21 08:16:35;;;;;;;12.63;1.20;;;;;;;19.25;48.80;99966.66;4997724;28;20375;-60
2021/10/21 08:19:01;;;;;;;6.45;1.45;;;;;;;19.26;48.46;99984.63;5015215;28;20037;-59
2021/10/21 08:21:27;;;;;;;7.70;1.17;;;;;;;19.41;48.14;99978.00;5015653;28;20041;-58
2021/10/21 08:23:55;;;;;;;4.90;1.10;;;;;;;19.54;48.23;99974.47;5015425;28;20096;-58
2021/10/21 08:26:24;;;;;;;9.85;1.45;;;;;;;19.92;47.56;99980.94;5015272;28;20030;-59
2021/10/21 08:28:51;;;;;;;5.28;1.17;;;;;;;20.31;47.23;99993.69;5015029;28;20022;-59
2021/10/21 08:31:16;;;;;;;5.60;1.23;;;;;;;20.40;46.95;99992.41;5014819;28;20029;-60
2021/10/21 08:33:43;;;;;;;8.38;2.00;;;;;;;20.44;46.55;99985.47;5014515;28;20026;-59
2021/10/21 08:36:11;;;;;;;5.65;1.65;;;;;;;20.52;46.75;100001.56;4996798;28;20101;-59
2021/10/21 08:38:37;;;;;;;9.75;1.30;;;;;;;20.69;46.53;100018.25;5014848;28;20030;-59
2021/10/21 08:41:03;;;;;;;5.03;1.15;;;;;;;20.71;46.68;100018.91;5015034;28;20029;-59
2021/10/21 08:43:28;;;;;;;1.58;0.90;;;;;;;20.64;46.76;100020.81;4997456;28;20028;-59
2021/10/21 08:45:54;;;;;;;2.40;1.10;;;;;;;20.60;46.81;100030.47;5014534;28;20099;-59
2021/10/21 08:48:19;;;;;;;3.50;0.55;;;;;;;20.53;46.69;100022.31;5014767;28;20021;-59
2021/10/21 08:50:47;;;;;;;1.10;1.00;;;;;;;20.57;46.34;100034.44;4996949;28;20030;-59
2021/10/21 08:53:13;;;;;;;4.18;0.95;;;;;;;20.76;46.15;100040.88;5014524;28;20083;-60
2021/10/21 08:55:38;;;;;;;2.78;0.55;;;;;;;20.66;45.79;100037.78;4997095;28;20061;-61
2021/10/21 08:58:04;;;;;;;3.53;0.70;;;;;;;20.98;45.39;100058.59;5014772;28;20034;-60
2021/10/21 09:00:31;;;;;;;6.13;0.65;;;;;;;21.55;44.56;100063.19;5014177;28;20080;-60
2021/10/21 09:03:01;;;;;;;5.15;1.00;;;;;;;21.69;44.18;100061.19;4996302;28;20045;-60
2021/10/21 09:06:10;;;;;;;4.10;0.60;;;;;;;21.50;44.83;100057.53;5013820;28;20503;-60
2021/10/21 09:08:18;;;;;;;2.95;0.77;;;;;;;21.70;44.20;100060.13;5000896;28;20498;-60
2021/10/21 09:10:53;;;;;;;3.53;0.63;;;;;;;22.52;42.87;100063.47;4996524;28;20540;-60
2021/10/21 09:13:24;;;;;;;5.90;1.05;;;;;;;22.96;42.27;100047.88;5013778;28;20037;-60
2021/10/21 09:15:51;;;;;;;2.42;0.47;;;;;;;24.61;40.13;100050.63;5013913;28;20104;-60
2021/10/21 09:18:17;;;;;;;5.57;1.05;;;;;;;24.53;40.85;100063.84;5013786;28;20113;-60
2021/10/21 09:20:44;;;;;;;3.97;0.70;;;;;;;24.44;41.52;100062.53;5013829;28;20058;-60
2021/10/21 09:23:16;;;;;;;3.15;0.63;;;;;;;24.30;41.07;100072.88;4996057;28;20026;-60
2021/10/21 09:25:42;;;;;;;6.20;1.17;;;;;;;24.18;41.84;100074.75;5013588;28;20025;-60
2021/10/21 09:28:27;;;;;;;3.55;1.38;;;;;;;24.05;41.69;100058.53;5013841;28;20034;-60
2021/10/21 09:31:12;;;;;;;3.53;0.60;;;;;;;24.00;41.19;100089.34;4996323;28;20037;-61
2021/10/21 09:33:56;;;;;;;3.53;0.70;;;;;;;23.80;41.43;100083.34;5013529;28;20034;-61
2021/10/21 09:36:26;;;;;;;4.03;0.70;;;;;;;23.67;41.52;100081.63;4996391;28;20431;-61
2021/10/21 09:38:56;;;;;;;2.17;0.75;;;;;;;23.64;41.32;100073.91;4996122;28;20506;-60
2021/10/21 09:41:24;;;;;;;1.88;0.73;;;;;;;23.35;40.76;100074.69;5013456;28;20433;-60
2021/10/21 09:43:51;;;;;;;9.10;1.08;;;;;;;23.68;40.31;100074.25;5013496;28;20030;-60
2021/10/21 09:46:41;;;;;;;7.22;0.90;;;;;;;23.77;40.11;100073.72;5015087;28;20483;-60
2021/10/21 09:49:18;;;;;;;5.68;0.90;;;;;;;23.47;40.69;100072.06;5000367;28;20045;-61
2021/10/21 09:51:45;;;;;;;4.45;1.13;;;;;;;23.39;40.72;100080.59;5017317;28;20096;-61
2021/10/21 09:54:11;;;;;;;6.40;1.02;;;;;;;23.15;41.19;100082.31;5017090;28;20109;-61
2021/10/21 09:57:02;;;;;;;5.07;0.90;;;;;;;22.78;42.52;100110.72;5017122;28;20107;-61
2021/10/21 09:59:32;;;;;;;6.32;1.27;;;;;;;22.46;42.31;100097.13;5017092;28;20168;-61
2021/10/21 10:02:18;;;;;;;4.80;0.70;;;;;;;22.68;41.19;100110.38;4999804;28;20152;-61
2021/10/21 10:04:46;;;;;;;6.07;1.20;;;;;;;23.16;40.33;100109.44;5016740;28;20137;-61
2021/10/21 10:07:13;;;;;;;7.15;1.10;;;;;;;23.80;40.03;100109.88;5016693;28;20450;-60
2021/10/21 10:09:38;;;;;;;6.05;1.20;;;;;;;23.69;40.03;100104.13;5036340;28;20030;-61
2021/10/21 10:12:05;;;;;;;2.67;0.65;;;;;;;23.49;40.75;100100.84;5036644;28;20032;-61
2021/10/21 10:14:32;;;;;;;4.28;1.08;;;;;;;23.31;41.46;100106.28;5036496;28;20109;-61
2021/10/21 10:16:59;;;;;;;3.55;1.02;;;;;;;23.18;40.95;100103.72;5036668;28;20505;-60
2021/10/21 10:19:25;;;;;;;6.07;0.80;;;;;;;23.02;40.86;100107.06;5018723;28;20033;-61
2021/10/21 10:21:52;;;;;;;6.72;1.73;;;;;;;22.75;41.66;100111.16;5036512;28;20501;-61
2021/10/21 10:24:17;;;;;;;9.35;1.10;;;;;;;22.49;41.43;100123.13;5019101;28;20068;-61
2021/10/21 10:26:48;;;;;;;6.18;1.10;;;;;;;22.25;41.66;100111.13;5018789;28;20734;-60
2021/10/21 10:29:16;;;;;;;6.75;1.27;;;;;;;22.11;42.74;100109.56;5036432;28;20045;-60
2021/10/21 10:31:46;;;;;;;7.00;0.95;;;;;;;22.00;42.87;100122.03;5036411;28;20083;-60
2021/10/21 10:34:34;;;;;;;7.15;0.82;;;;;;;21.85;42.53;100107.84;5036371;28;20022;-61
2021/10/21 10:37:15;;;;;;;30.27;3.05;;;;;;;21.78;42.87;100119.84;5036290;28;20044;-60
2021/10/21 10:39:57;;;;;;;79.10;7.70;;;;;;;21.66;42.41;100114.28;5018571;28;20029;-61
2021/10/21 10:42:29;;;;;;;6.60;1.42;;;;;;;21.60;43.63;100136.94;5018552;28;20025;-61
2021/10/21 10:44:54;;;;;;;4.32;1.00;;;;;;;21.50;43.32;100139.28;5036414;28;20363;-61
2021/10/21 10:47:49;;;;;;;8.68;1.13;;;;;;;21.42;43.36;100143.09;5036453;28;20075;-61
2021/10/21 10:50:48;;;;;;;6.95;1.08;;;;;;;21.26;43.41;100162.66;5036138;28;20064;-60
2021/10/21 10:53:14;;;;;;;5.80;1.23;;;;;;;21.12;43.37;100174.66;5018478;28;20029;-60
2021/10/21 10:55:39;;;;;;;7.68;1.27;;;;;;;21.01;44.31;100182.59;5036281;28;20119;-61
2021/10/21 10:58:06;;;;;;;5.88;1.15;;;;;;;20.86;44.94;100202.72;5035108;28;20026;-61
2021/10/21 11:00:49;;;;;;;5.75;0.98;;;;;;;20.67;44.58;100229.97;5036328;28;20478;-64
2021/10/21 11:03:39;;;;;;;5.00;0.85;;;;;;;20.42;45.19;100215.28;5002220;28;20029;-68
2021/10/21 11:06:15;;;;;;;3.10;1.05;;;;;;;20.18;45.57;100231.13;5033114;28;20050;-64
2021/10/21 11:09:07;;;;;;;2.03;0.95;;;;;;;19.90;45.66;100205.97;5035145;28;20069;-68
2021/10/21 11:11:52;;;;;;;3.65;0.65;;;;;;;19.60;46.07;100208.13;5035711;28;20084;-64
2021/10/21 11:14:36;;;;;;;1.23;0.20;;;;;;;19.29;45.76;100217.78;5036179;28;20052;-61
2021/10/21 11:17:02;;;;;;;0.75;0.22;;;;;;;19.05;45.56;100228.09;5034842;28;20029;-60
2021/10/21 11:19:42;;;;;;;0.63;0.40;;;;;;;18.89;45.59;100222.97;5036292;28;20079;-60
2021/10/21 11:22:09;;;;;;;2.33;0.22;;;;;;;18.79;45.93;100233.31;5036156;28;20065;-60
2021/10/21 11:24:47;;;;;;;2.97;0.65;;;;;;;18.67;45.92;100234.06;5035026;28;20037;-60
2021/10/21 11:27:36;;;;;;;0.73;0.43;;;;;;;18.61;46.04;100241.09;5036386;28;20075;-59
2021/10/21 11:30:17;;;;;;;0.57;0.20;;;;;;;18.55;46.67;100244.59;5035422;28;20021;-60
2021/10/21 11:32:43;;;;;;;1.20;0.40;;;;;;;18.54;46.95;100257.31;5035866;28;20029;-60